sensor_id;sensor_type;location;lat;lon;timestamp;P1;durP1;ratioP1;P2;durP2;ratioP2
20535;SDS011;10426;49.420;8.390;2023-04-24T00:01:03;1.20;;;0.98;;
20535;SDS011;10426;49.420;8.390;2023-04-24T00:03:32;1.00;;;1.00;;
20535;SDS011;10426;49.420;8.390;2023-04-24T00:05:59;2.25;;;1.00;;
20535;SDS011;10426;49.420;8.390;2023-04-24T00:08:27;1.70;;;1.20;;
20535;SDS011;10426;49.420;8.390;2023-04-24T00:10:54;2.38;;;1.05;;
20535;SDS011;10426;49.420;8.390;2023-04-24T00:13:21;1.38;;;1.30;;
20535;SDS011;10426;49.420;8.390;2023-04-24T00:15:49;1.25;;;1.10;;
20535;SDS011;10426;49.420;8.390;2023-04-24T00:18:15;1.20;;;1.02;;
20535;SDS011;10426;49.420;8.390;2023-04-24T00:20:42;1.25;;;1.15;;
20535;SDS011;10426;49.420;8.390;2023-04-24T00:23:09;1.30;;;1.20;;
20535;SDS011;10426;49.420;8.390;2023-04-24T00:25:35;1.10;;;1.10;;
20535;SDS011;10426;49.420;8.390;2023-04-24T00:28:02;1.83;;;1.10;;
20535;SDS011;10426;49.420;8.390;2023-04-24T00:30:29;1.42;;;1.30;;
20535;SDS011;10426;49.420;8.390;2023-04-24T00:32:57;1.10;;;1.00;;
20535;SDS011;10426;49.420;8.390;2023-04-24T00:35:23;1.93;;;1.17;;
20535;SDS011;10426;49.420;8.390;2023-04-24T00:37:50;1.50;;;1.20;;
20535;SDS011;10426;49.420;8.390;2023-04-24T00:40:17;1.30;;;1.10;;
20535;SDS011;10426;49.420;8.390;2023-04-24T00:42:43;1.30;;;1.20;;
20535;SDS011;10426;49.420;8.390;2023-04-24T00:45:10;1.55;;;1.30;;
20535;SDS011;10426;49.420;8.390;2023-04-24T00:47:37;1.65;;;1.20;;
20535;SDS011;10426;49.420;8.390;2023-04-24T00:50:07;1.20;;;1.20;;
20535;SDS011;10426;49.420;8.390;2023-04-24T00:52:33;1.05;;;1.05;;
20535;SDS011;10426;49.420;8.390;2023-04-24T00:55:00;0.98;;;0.98;;
20535;SDS011;10426;49.420;8.390;2023-04-24T00:57:27;2.80;;;1.20;;
20535;SDS011;10426;49.420;8.390;2023-04-24T00:59:53;3.63;;;1.20;;
20535;SDS011;10426;49.420;8.390;2023-04-24T01:02:20;2.67;;;1.33;;
20535;SDS011;10426;49.420;8.390;2023-04-24T01:04:50;2.40;;;1.33;;
20535;SDS011;10426;49.420;8.390;2023-04-24T01:07:18;1.35;;;1.17;;
20535;SDS011;10426;49.420;8.390;2023-04-24T01:09:46;1.70;;;1.30;;
20535;SDS011;10426;49.420;8.390;2023-04-24T01:12:14;1.35;;;1.20;;
20535;SDS011;10426;49.420;8.390;2023-04-24T01:14:41;1.73;;;1.20;;
20535;SDS011;10426;49.420;8.390;2023-04-24T01:17:07;1.35;;;1.30;;
20535;SDS011;10426;49.420;8.390;2023-04-24T01:19:34;2.75;;;1.15;;
20535;SDS011;10426;49.420;8.390;2023-04-24T01:22:01;1.52;;;1.30;;
20535;SDS011;10426;49.420;8.390;2023-04-24T01:24:29;1.20;;;1.10;;
20535;SDS011;10426;49.420;8.390;2023-04-24T01:26:56;1.73;;;1.27;;
20535;SDS011;10426;49.420;8.390;2023-04-24T01:29:23;1.85;;;1.20;;
20535;SDS011;10426;49.420;8.390;2023-04-24T01:31:50;1.50;;;1.20;;
20535;SDS011;10426;49.420;8.390;2023-04-24T01:34:16;1.45;;;1.30;;
20535;SDS011;10426;49.420;8.390;2023-04-24T01:36:43;1.38;;;1.20;;
20535;SDS011;10426;49.420;8.390;2023-04-24T01:39:11;1.23;;;1.13;;
20535;SDS011;10426;49.420;8.390;2023-04-24T01:41:39;1.45;;;1.10;;
20535;SDS011;10426;49.420;8.390;2023-04-24T01:44:06;1.90;;;1.20;;
20535;SDS011;10426;49.420;8.390;2023-04-24T01:46:33;2.22;;;1.23;;
20535;SDS011;10426;49.420;8.390;2023-04-24T01:49:00;1.60;;;1.17;;
20535;SDS011;10426;49.420;8.390;2023-04-24T01:51:27;1.70;;;1.17;;
20535;SDS011;10426;49.420;8.390;2023-04-24T01:53:53;1.20;;;1.20;;
20535;SDS011;10426;49.420;8.390;2023-04-24T01:56:21;3.00;;;1.20;;
20535;SDS011;10426;49.420;8.390;2023-04-24T01:58:49;1.92;;;1.30;;
20535;SDS011;10426;49.420;8.390;2023-04-24T02:01:17;2.33;;;1.17;;
20535;SDS011;10426;49.420;8.390;2023-04-24T02:03:44;1.50;;;1.10;;
20535;SDS011;10426;49.420;8.390;2023-04-24T02:06:10;1.23;;;1.13;;
20535;SDS011;10426;49.420;8.390;2023-04-24T02:08:38;1.50;;;1.20;;
20535;SDS011;10426;49.420;8.390;2023-04-24T02:11:04;1.60;;;1.20;;
20535;SDS011;10426;49.420;8.390;2023-04-24T02:13:31;1.30;;;1.20;;
20535;SDS011;10426;49.420;8.390;2023-04-24T02:15:59;1.23;;;1.10;;
20535;SDS011;10426;49.420;8.390;2023-04-24T02:18:26;2.23;;;1.20;;
20535;SDS011;10426;49.420;8.390;2023-04-24T02:20:52;1.40;;;1.30;;
20535;SDS011;10426;49.420;8.390;2023-04-24T02:23:19;3.20;;;1.10;;
20535;SDS011;10426;49.420;8.390;2023-04-24T02:25:46;1.40;;;1.30;;
20535;SDS011;10426;49.420;8.390;2023-04-24T02:28:13;1.95;;;1.17;;
20535;SDS011;10426;49.420;8.390;2023-04-24T02:30:40;1.80;;;1.35;;
20535;SDS011;10426;49.420;8.390;2023-04-24T02:33:08;2.20;;;1.30;;
20535;SDS011;10426;49.420;8.390;2023-04-24T02:35:34;2.33;;;1.30;;
20535;SDS011;10426;49.420;8.390;2023-04-24T02:38:01;1.40;;;1.20;;
20535;SDS011;10426;49.420;8.390;2023-04-24T02:40:28;3.08;;;1.48;;
20535;SDS011;10426;49.420;8.390;2023-04-24T02:42:55;1.40;;;1.30;;
20535;SDS011;10426;49.420;8.390;2023-04-24T02:45:21;2.22;;;1.33;;
20535;SDS011;10426;49.420;8.390;2023-04-24T02:47:48;1.20;;;1.10;;
20535;SDS011;10426;49.420;8.390;2023-04-24T02:50:16;1.33;;;1.23;;
20535;SDS011;10426;49.420;8.390;2023-04-24T02:52:43;1.67;;;1.33;;
20535;SDS011;10426;49.420;8.390;2023-04-24T02:55:09;1.90;;;1.30;;
20535;SDS011;10426;49.420;8.390;2023-04-24T02:57:36;1.20;;;1.20;;
20535;SDS011;10426;49.420;8.390;2023-04-24T03:00:03;1.35;;;1.20;;
20535;SDS011;10426;49.420;8.390;2023-04-24T03:02:32;1.30;;;1.20;;
20535;SDS011;10426;49.420;8.390;2023-04-24T03:04:59;1.60;;;1.23;;
20535;SDS011;10426;49.420;8.390;2023-04-24T03:07:27;1.10;;;1.10;;
20535;SDS011;10426;49.420;8.390;2023-04-24T03:09:53;1.30;;;1.20;;
20535;SDS011;10426;49.420;8.390;2023-04-24T03:12:21;1.40;;;1.30;;
20535;SDS011;10426;49.420;8.390;2023-04-24T03:14:49;1.40;;;1.20;;
20535;SDS011;10426;49.420;8.390;2023-04-24T03:17:15;2.00;;;1.30;;
20535;SDS011;10426;49.420;8.390;2023-04-24T03:19:42;1.40;;;1.30;;
20535;SDS011;10426;49.420;8.390;2023-04-24T03:22:09;1.75;;;1.10;;
20535;SDS011;10426;49.420;8.390;2023-04-24T03:24:38;1.10;;;1.10;;
20535;SDS011;10426;49.420;8.390;2023-04-24T03:27:04;1.13;;;0.98;;
20535;SDS011;10426;49.420;8.390;2023-04-24T03:29:31;1.00;;;1.00;;
20535;SDS011;10426;49.420;8.390;2023-04-24T03:31:57;1.08;;;1.00;;
20535;SDS011;10426;49.420;8.390;2023-04-24T03:34:24;1.20;;;1.05;;
20535;SDS011;10426;49.420;8.390;2023-04-24T03:36:51;0.98;;;0.95;;
20535;SDS011;10426;49.420;8.390;2023-04-24T03:39:18;1.20;;;1.10;;
20535;SDS011;10426;49.420;8.390;2023-04-24T03:41:46;1.10;;;1.10;;
20535;SDS011;10426;49.420;8.390;2023-04-24T03:44:12;1.30;;;1.20;;
20535;SDS011;10426;49.420;8.390;2023-04-24T03:46:39;1.15;;;1.10;;
20535;SDS011;10426;49.420;8.390;2023-04-24T03:49:06;1.90;;;1.30;;
20535;SDS011;10426;49.420;8.390;2023-04-24T03:51:32;1.13;;;1.07;;
20535;SDS011;10426;49.420;8.390;2023-04-24T03:53:59;1.70;;;1.23;;
20535;SDS011;10426;49.420;8.390;2023-04-24T03:56:25;1.42;;;1.33;;
20535;SDS011;10426;49.420;8.390;2023-04-24T03:58:53;1.33;;;1.23;;
20535;SDS011;10426;49.420;8.390;2023-04-24T04:01:20;7.03;;;1.25;;
20535;SDS011;10426;49.420;8.390;2023-04-24T04:03:47;1.30;;;1.20;;
20535;SDS011;10426;49.420;8.390;2023-04-24T04:06:14;1.35;;;1.25;;
20535;SDS011;10426;49.420;8.390;2023-04-24T04:08:40;1.30;;;1.20;;
20535;SDS011;10426;49.420;8.390;2023-04-24T04:11:07;1.50;;;1.40;;
20535;SDS011;10426;49.420;8.390;2023-04-24T04:13:34;1.30;;;1.20;;
20535;SDS011;10426;49.420;8.390;2023-04-24T04:16:02;1.50;;;1.40;;
20535;SDS011;10426;49.420;8.390;2023-04-24T04:18:28;1.40;;;1.40;;
20535;SDS011;10426;49.420;8.390;2023-04-24T04:20:55;2.35;;;1.40;;
20535;SDS011;10426;49.420;8.390;2023-04-24T04:23:22;1.60;;;1.50;;
20535;SDS011;10426;49.420;8.390;2023-04-24T04:25:48;1.63;;;1.52;;
20535;SDS011;10426;49.420;8.390;2023-04-24T04:28:15;1.60;;;1.50;;
20535;SDS011;10426;49.420;8.390;2023-04-24T04:30:45;2.22;;;1.60;;
20535;SDS011;10426;49.420;8.390;2023-04-24T04:33:13;1.67;;;1.50;;
20535;SDS011;10426;49.420;8.390;2023-04-24T04:35:40;1.90;;;1.80;;
20535;SDS011;10426;49.420;8.390;2023-04-24T04:38:07;2.38;;;1.70;;
20535;SDS011;10426;49.420;8.390;2023-04-24T04:40:36;1.80;;;1.70;;
20535;SDS011;10426;49.420;8.390;2023-04-24T04:43:02;1.90;;;1.88;;
20535;SDS011;10426;49.420;8.390;2023-04-24T04:45:29;2.85;;;1.90;;
20535;SDS011;10426;49.420;8.390;2023-04-24T04:47:56;2.17;;;1.77;;
20535;SDS011;10426;49.420;8.390;2023-04-24T04:50:24;2.00;;;1.90;;
20535;SDS011;10426;49.420;8.390;2023-04-24T04:52:50;2.00;;;1.90;;
20535;SDS011;10426;49.420;8.390;2023-04-24T04:55:17;2.10;;;1.88;;
20535;SDS011;10426;49.420;8.390;2023-04-24T04:57:45;1.90;;;1.80;;
20535;SDS011;10426;49.420;8.390;2023-04-24T05:00:12;2.00;;;1.90;;
20535;SDS011;10426;49.420;8.390;2023-04-24T05:02:39;2.22;;;2.03;;
20535;SDS011;10426;49.420;8.390;2023-04-24T05:05:06;1.90;;;1.80;;
20535;SDS011;10426;49.420;8.390;2023-04-24T05:07:34;2.17;;;1.73;;
20535;SDS011;10426;49.420;8.390;2023-04-24T05:10:00;1.77;;;1.67;;
20535;SDS011;10426;49.420;8.390;2023-04-24T05:12:27;1.73;;;1.63;;
20535;SDS011;10426;49.420;8.390;2023-04-24T05:14:54;1.92;;;1.80;;
20535;SDS011;10426;49.420;8.390;2023-04-24T05:17:20;1.77;;;1.67;;
20535;SDS011;10426;49.420;8.390;2023-04-24T05:19:47;2.10;;;1.98;;
20535;SDS011;10426;49.420;8.390;2023-04-24T05:22:14;2.10;;;2.00;;
20535;SDS011;10426;49.420;8.390;2023-04-24T05:24:41;2.40;;;2.20;;
20535;SDS011;10426;49.420;8.390;2023-04-24T05:27:08;2.75;;;2.33;;
20535;SDS011;10426;49.420;8.390;2023-04-24T05:29:35;2.20;;;2.10;;
20535;SDS011;10426;49.420;8.390;2023-04-24T05:32:01;2.13;;;2.03;;
20535;SDS011;10426;49.420;8.390;2023-04-24T05:34:28;2.40;;;2.30;;
20535;SDS011;10426;49.420;8.390;2023-04-24T05:36:55;2.30;;;2.20;;
20535;SDS011;10426;49.420;8.390;2023-04-24T05:39:21;3.08;;;2.30;;
20535;SDS011;10426;49.420;8.390;2023-04-24T05:41:51;2.38;;;2.28;;
20535;SDS011;10426;49.420;8.390;2023-04-24T05:44:18;2.50;;;2.28;;
20535;SDS011;10426;49.420;8.390;2023-04-24T05:46:44;2.55;;;2.20;;
20535;SDS011;10426;49.420;8.390;2023-04-24T05:49:11;2.38;;;2.20;;
20535;SDS011;10426;49.420;8.390;2023-04-24T05:51:38;2.30;;;2.20;;
20535;SDS011;10426;49.420;8.390;2023-04-24T05:54:05;3.00;;;2.10;;
20535;SDS011;10426;49.420;8.390;2023-04-24T05:56:31;3.40;;;2.10;;
20535;SDS011;10426;49.420;8.390;2023-04-24T05:58:59;2.47;;;2.28;;
20535;SDS011;10426;49.420;8.390;2023-04-24T06:01:26;2.22;;;2.13;;
20535;SDS011;10426;49.420;8.390;2023-04-24T06:03:53;2.78;;;2.30;;
20535;SDS011;10426;49.420;8.390;2023-04-24T06:06:19;2.13;;;2.03;;
20535;SDS011;10426;49.420;8.390;2023-04-24T06:08:46;2.30;;;2.17;;
20535;SDS011;10426;49.420;8.390;2023-04-24T06:11:13;2.20;;;2.10;;
20535;SDS011;10426;49.420;8.390;2023-04-24T06:13:39;2.30;;;2.20;;
20535;SDS011;10426;49.420;8.390;2023-04-24T06:16:07;2.30;;;2.20;;
20535;SDS011;10426;49.420;8.390;2023-04-24T06:18:34;2.30;;;2.20;;
20535;SDS011;10426;49.420;8.390;2023-04-24T06:21:00;2.22;;;2.03;;
20535;SDS011;10426;49.420;8.390;2023-04-24T06:23:27;2.37;;;2.17;;
20535;SDS011;10426;49.420;8.390;2023-04-24T06:25:54;2.08;;;1.92;;
20535;SDS011;10426;49.420;8.390;2023-04-24T06:28:21;2.33;;;2.13;;
20535;SDS011;10426;49.420;8.390;2023-04-24T06:30:48;2.10;;;2.00;;
20535;SDS011;10426;49.420;8.390;2023-04-24T06:33:16;1.90;;;1.80;;
20535;SDS011;10426;49.420;8.390;2023-04-24T06:35:42;1.85;;;1.75;;
20535;SDS011;10426;49.420;8.390;2023-04-24T06:38:09;2.03;;;1.48;;
20535;SDS011;10426;49.420;8.390;2023-04-24T06:40:36;1.40;;;1.40;;
20535;SDS011;10426;49.420;8.390;2023-04-24T06:43:03;1.40;;;1.30;;
20535;SDS011;10426;49.420;8.390;2023-04-24T06:45:31;1.30;;;1.10;;
20535;SDS011;10426;49.420;8.390;2023-04-24T06:47:58;1.10;;;1.10;;
20535;SDS011;10426;49.420;8.390;2023-04-24T06:50:26;1.00;;;1.00;;
20535;SDS011;10426;49.420;8.390;2023-04-24T06:52:52;1.20;;;1.20;;
20535;SDS011;10426;49.420;8.390;2023-04-24T06:55:19;1.10;;;1.00;;
20535;SDS011;10426;49.420;8.390;2023-04-24T06:57:46;0.98;;;0.98;;
20535;SDS011;10426;49.420;8.390;2023-04-24T07:00:12;1.00;;;1.00;;
20535;SDS011;10426;49.420;8.390;2023-04-24T07:02:39;1.55;;;0.93;;
20535;SDS011;10426;49.420;8.390;2023-04-24T07:05:06;0.77;;;0.77;;
20535;SDS011;10426;49.420;8.390;2023-04-24T07:07:35;0.80;;;0.80;;
20535;SDS011;10426;49.420;8.390;2023-04-24T07:10:03;1.20;;;0.97;;
20535;SDS011;10426;49.420;8.390;2023-04-24T07:12:30;1.15;;;0.95;;
20535;SDS011;10426;49.420;8.390;2023-04-24T07:14:57;1.15;;;0.88;;
20535;SDS011;10426;49.420;8.390;2023-04-24T07:17:23;1.00;;;1.00;;
20535;SDS011;10426;49.420;8.390;2023-04-24T07:19:50;1.00;;;1.00;;
20535;SDS011;10426;49.420;8.390;2023-04-24T07:22:17;1.23;;;1.17;;
20535;SDS011;10426;49.420;8.390;2023-04-24T07:24:45;2.22;;;1.20;;
20535;SDS011;10426;49.420;8.390;2023-04-24T07:27:11;1.85;;;1.20;;
20535;SDS011;10426;49.420;8.390;2023-04-24T07:29:40;1.48;;;1.20;;
20535;SDS011;10426;49.420;8.390;2023-04-24T07:32:06;1.33;;;1.20;;
20535;SDS011;10426;49.420;8.390;2023-04-24T07:34:34;1.77;;;1.50;;
20535;SDS011;10426;49.420;8.390;2023-04-24T07:37:01;1.38;;;1.38;;
20535;SDS011;10426;49.420;8.390;2023-04-24T07:39:28;1.50;;;1.40;;
20535;SDS011;10426;49.420;8.390;2023-04-24T07:41:56;2.40;;;2.00;;
20535;SDS011;10426;49.420;8.390;2023-04-24T07:44:24;1.77;;;1.55;;
20535;SDS011;10426;49.420;8.390;2023-04-24T07:46:51;1.40;;;1.40;;
20535;SDS011;10426;49.420;8.390;2023-04-24T07:49:17;2.77;;;1.53;;
20535;SDS011;10426;49.420;8.390;2023-04-24T07:51:44;1.50;;;1.40;;
20535;SDS011;10426;49.420;8.390;2023-04-24T07:54:11;1.50;;;1.40;;
20535;SDS011;10426;49.420;8.390;2023-04-24T07:56:37;1.38;;;1.38;;
20535;SDS011;10426;49.420;8.390;2023-04-24T07:59:06;1.60;;;1.50;;
20535;SDS011;10426;49.420;8.390;2023-04-24T08:01:32;1.40;;;1.30;;
20535;SDS011;10426;49.420;8.390;2023-04-24T08:03:59;1.23;;;1.20;;
20535;SDS011;10426;49.420;8.390;2023-04-24T08:06:26;1.30;;;1.20;;
20535;SDS011;10426;49.420;8.390;2023-04-24T08:08:55;2.05;;;1.10;;
20535;SDS011;10426;49.420;8.390;2023-04-24T08:11:22;1.10;;;1.10;;
20535;SDS011;10426;49.420;8.390;2023-04-24T08:13:48;1.38;;;1.00;;
20535;SDS011;10426;49.420;8.390;2023-04-24T08:16:16;1.10;;;1.10;;
20535;SDS011;10426;49.420;8.390;2023-04-24T08:18:43;1.20;;;1.20;;
20535;SDS011;10426;49.420;8.390;2023-04-24T08:21:10;1.20;;;1.20;;
20535;SDS011;10426;49.420;8.390;2023-04-24T08:23:42;2.40;;;1.30;;
20535;SDS011;10426;49.420;8.390;2023-04-24T08:26:09;1.30;;;1.30;;
20535;SDS011;10426;49.420;8.390;2023-04-24T08:28:36;1.20;;;1.20;;
20535;SDS011;10426;49.420;8.390;2023-04-24T08:31:03;2.33;;;1.20;;
20535;SDS011;10426;49.420;8.390;2023-04-24T08:33:31;1.23;;;1.17;;
20535;SDS011;10426;49.420;8.390;2023-04-24T08:35:59;1.98;;;1.40;;
20535;SDS011;10426;49.420;8.390;2023-04-24T08:38:26;1.45;;;1.30;;
20535;SDS011;10426;49.420;8.390;2023-04-24T08:40:53;1.77;;;1.40;;
20535;SDS011;10426;49.420;8.390;2023-04-24T08:43:20;1.25;;;1.20;;
20535;SDS011;10426;49.420;8.390;2023-04-24T08:45:48;1.17;;;1.08;;
20535;SDS011;10426;49.420;8.390;2023-04-24T08:48:15;1.20;;;1.20;;
20535;SDS011;10426;49.420;8.390;2023-04-24T08:50:43;1.67;;;1.20;;
20535;SDS011;10426;49.420;8.390;2023-04-24T08:53:10;2.28;;;1.38;;
20535;SDS011;10426;49.420;8.390;2023-04-24T08:55:39;2.03;;;1.30;;
20535;SDS011;10426;49.420;8.390;2023-04-24T08:58:07;1.27;;;1.27;;
20535;SDS011;10426;49.420;8.390;2023-04-24T09:00:34;1.75;;;1.30;;
20535;SDS011;10426;49.420;8.390;2023-04-24T09:03:01;1.75;;;1.35;;
20535;SDS011;10426;49.420;8.390;2023-04-24T09:05:28;1.50;;;1.40;;
20535;SDS011;10426;49.420;8.390;2023-04-24T09:07:56;1.67;;;1.58;;
20535;SDS011;10426;49.420;8.390;2023-04-24T09:10:24;1.55;;;1.45;;
20535;SDS011;10426;49.420;8.390;2023-04-24T09:12:50;1.50;;;1.40;;
20535;SDS011;10426;49.420;8.390;2023-04-24T09:15:18;1.50;;;1.40;;
20535;SDS011;10426;49.420;8.390;2023-04-24T09:17:45;1.52;;;1.42;;
20535;SDS011;10426;49.420;8.390;2023-04-24T09:20:12;2.00;;;1.75;;
20535;SDS011;10426;49.420;8.390;2023-04-24T09:22:39;1.50;;;1.40;;
20535;SDS011;10426;49.420;8.390;2023-04-24T09:25:07;1.50;;;1.50;;
20535;SDS011;10426;49.420;8.390;2023-04-24T09:27:34;1.30;;;1.30;;
20535;SDS011;10426;49.420;8.390;2023-04-24T09:30:01;1.60;;;1.50;;
20535;SDS011;10426;49.420;8.390;2023-04-24T09:32:28;1.67;;;1.57;;
20535;SDS011;10426;49.420;8.390;2023-04-24T09:35:07;1.85;;;1.63;;
20535;SDS011;10426;49.420;8.390;2023-04-24T09:37:37;1.85;;;1.75;;
20535;SDS011;10426;49.420;8.390;2023-04-24T09:40:08;1.67;;;1.60;;
20535;SDS011;10426;49.420;8.390;2023-04-24T09:42:35;2.00;;;1.90;;
20535;SDS011;10426;49.420;8.390;2023-04-24T09:45:02;1.90;;;1.80;;
20535;SDS011;10426;49.420;8.390;2023-04-24T09:47:30;1.80;;;1.70;;
20535;SDS011;10426;49.420;8.390;2023-04-24T09:50:08;1.80;;;1.70;;
20535;SDS011;10426;49.420;8.390;2023-04-24T09:52:35;1.80;;;1.60;;
20535;SDS011;10426;49.420;8.390;2023-04-24T09:55:02;2.70;;;1.40;;
20535;SDS011;10426;49.420;8.390;2023-04-24T09:57:30;1.90;;;1.60;;
20535;SDS011;10426;49.420;8.390;2023-04-24T09:59:57;1.95;;;1.67;;
20535;SDS011;10426;49.420;8.390;2023-04-24T10:02:24;1.63;;;1.52;;
20535;SDS011;10426;49.420;8.390;2023-04-24T10:04:53;1.65;;;1.55;;
20535;SDS011;10426;49.420;8.390;2023-04-24T10:07:21;1.50;;;1.40;;
20535;SDS011;10426;49.420;8.390;2023-04-24T10:09:47;1.63;;;1.50;;
20535;SDS011;10426;49.420;8.390;2023-04-24T10:12:14;1.90;;;1.23;;
20535;SDS011;10426;49.420;8.390;2023-04-24T10:14:42;1.40;;;1.30;;
20535;SDS011;10426;49.420;8.390;2023-04-24T10:17:10;1.15;;;1.10;;
20535;SDS011;10426;49.420;8.390;2023-04-24T10:19:37;1.30;;;1.20;;
20535;SDS011;10426;49.420;8.390;2023-04-24T10:22:04;1.57;;;1.30;;
20535;SDS011;10426;49.420;8.390;2023-04-24T10:24:33;1.50;;;1.40;;
20535;SDS011;10426;49.420;8.390;2023-04-24T10:27:00;1.42;;;1.20;;
20535;SDS011;10426;49.420;8.390;2023-04-24T10:29:27;1.00;;;1.00;;
20535;SDS011;10426;49.420;8.390;2023-04-24T10:31:59;1.30;;;1.20;;
20535;SDS011;10426;49.420;8.390;2023-04-24T10:34:25;1.20;;;1.20;;
20535;SDS011;10426;49.420;8.390;2023-04-24T10:36:52;1.60;;;1.50;;
20535;SDS011;10426;49.420;8.390;2023-04-24T10:39:19;2.72;;;1.52;;
20535;SDS011;10426;49.420;8.390;2023-04-24T10:41:48;1.50;;;1.50;;
20535;SDS011;10426;49.420;8.390;2023-04-24T10:44:17;1.55;;;1.45;;
20535;SDS011;10426;49.420;8.390;2023-04-24T10:46:44;1.70;;;1.60;;
20535;SDS011;10426;49.420;8.390;2023-04-24T10:49:12;2.70;;;1.50;;
20535;SDS011;10426;49.420;8.390;2023-04-24T10:51:46;1.90;;;1.80;;
20535;SDS011;10426;49.420;8.390;2023-04-24T10:59:43;2.17;;;2.07;;
20535;SDS011;10426;49.420;8.390;2023-04-24T11:02:10;2.08;;;1.98;;
20535;SDS011;10426;49.420;8.390;2023-04-24T11:04:38;2.00;;;1.90;;
20535;SDS011;10426;49.420;8.390;2023-04-24T11:07:08;2.10;;;2.00;;
20535;SDS011;10426;49.420;8.390;2023-04-24T11:09:44;2.78;;;1.98;;
20535;SDS011;10426;49.420;8.390;2023-04-24T11:12:11;1.85;;;1.75;;
20535;SDS011;10426;49.420;8.390;2023-04-24T11:17:33;2.10;;;1.83;;
20535;SDS011;10426;49.420;8.390;2023-04-24T11:20:04;2.40;;;2.20;;
20535;SDS011;10426;49.420;8.390;2023-04-24T11:22:32;1.95;;;1.85;;
20535;SDS011;10426;49.420;8.390;2023-04-24T11:24:59;2.00;;;1.90;;
20535;SDS011;10426;49.420;8.390;2023-04-24T11:27:29;2.13;;;2.03;;
20535;SDS011;10426;49.420;8.390;2023-04-24T11:29:58;2.50;;;2.30;;
20535;SDS011;10426;49.420;8.390;2023-04-24T11:32:26;2.40;;;2.20;;
20535;SDS011;10426;49.420;8.390;2023-04-24T11:34:54;2.27;;;2.17;;
20535;SDS011;10426;49.420;8.390;2023-04-24T11:37:23;2.50;;;2.30;;
20535;SDS011;10426;49.420;8.390;2023-04-24T11:39:51;2.60;;;2.40;;
20535;SDS011;10426;49.420;8.390;2023-04-24T11:42:18;2.47;;;2.30;;
20535;SDS011;10426;49.420;8.390;2023-04-24T11:44:44;2.50;;;2.30;;
20535;SDS011;10426;49.420;8.390;2023-04-24T11:47:13;2.58;;;2.35;;
20535;SDS011;10426;49.420;8.390;2023-04-24T11:49:39;2.63;;;2.42;;
20535;SDS011;10426;49.420;8.390;2023-04-24T11:52:06;2.10;;;2.00;;
20535;SDS011;10426;49.420;8.390;2023-04-24T11:54:34;2.55;;;2.30;;
20535;SDS011;10426;49.420;8.390;2023-04-24T11:57:03;2.70;;;2.50;;
20535;SDS011;10426;49.420;8.390;2023-04-24T11:59:34;2.70;;;2.50;;
20535;SDS011;10426;49.420;8.390;2023-04-24T12:02:01;2.50;;;2.33;;
20535;SDS011;10426;49.420;8.390;2023-04-24T12:04:37;2.53;;;2.33;;
20535;SDS011;10426;49.420;8.390;2023-04-24T12:07:04;2.20;;;2.10;;
20535;SDS011;10426;49.420;8.390;2023-04-24T12:09:41;2.50;;;2.30;;
20535;SDS011;10426;49.420;8.390;2023-04-24T12:12:08;2.60;;;2.40;;
20535;SDS011;10426;49.420;8.390;2023-04-24T12:14:41;2.65;;;2.10;;
20535;SDS011;10426;49.420;8.390;2023-04-24T12:17:08;2.63;;;2.40;;
20535;SDS011;10426;49.420;8.390;2023-04-24T12:19:35;2.70;;;2.50;;
20535;SDS011;10426;49.420;8.390;2023-04-24T12:22:03;2.65;;;2.30;;
20535;SDS011;10426;49.420;8.390;2023-04-24T12:24:30;3.22;;;2.35;;
20535;SDS011;10426;49.420;8.390;2023-04-24T12:26:59;2.30;;;2.20;;
20535;SDS011;10426;49.420;8.390;2023-04-24T12:29:26;2.70;;;2.50;;
20535;SDS011;10426;49.420;8.390;2023-04-24T12:31:53;2.38;;;2.20;;
20535;SDS011;10426;49.420;8.390;2023-04-24T12:34:21;2.45;;;2.20;;
20535;SDS011;10426;49.420;8.390;2023-04-24T12:36:47;2.50;;;1.98;;
20535;SDS011;10426;49.420;8.390;2023-04-24T12:39:15;2.53;;;2.33;;
20535;SDS011;10426;49.420;8.390;2023-04-24T12:41:50;2.33;;;2.13;;
20535;SDS011;10426;49.420;8.390;2023-04-24T12:44:19;2.60;;;2.40;;
20535;SDS011;10426;49.420;8.390;2023-04-24T12:46:46;2.35;;;2.10;;
20535;SDS011;10426;49.420;8.390;2023-04-24T12:49:14;2.05;;;1.95;;
20535;SDS011;10426;49.420;8.390;2023-04-24T12:51:41;2.20;;;2.00;;
20535;SDS011;10426;49.420;8.390;2023-04-24T12:54:08;2.33;;;2.00;;
20535;SDS011;10426;49.420;8.390;2023-04-24T12:56:35;2.20;;;2.10;;
20535;SDS011;10426;49.420;8.390;2023-04-24T12:59:04;2.50;;;2.10;;
20535;SDS011;10426;49.420;8.390;2023-04-24T13:01:32;2.53;;;2.42;;
20535;SDS011;10426;49.420;8.390;2023-04-24T13:03:59;3.58;;;2.30;;
20535;SDS011;10426;49.420;8.390;2023-04-24T13:06:26;3.00;;;2.70;;
20535;SDS011;10426;49.420;8.390;2023-04-24T13:08:52;2.60;;;2.30;;
20535;SDS011;10426;49.420;8.390;2023-04-24T13:11:20;2.40;;;2.20;;
20535;SDS011;10426;49.420;8.390;2023-04-24T13:13:47;2.42;;;2.20;;
20535;SDS011;10426;49.420;8.390;2023-04-24T13:16:14;2.17;;;1.90;;
20535;SDS011;10426;49.420;8.390;2023-04-24T13:18:42;2.30;;;2.10;;
20535;SDS011;10426;49.420;8.390;2023-04-24T13:21:08;2.40;;;2.20;;
20535;SDS011;10426;49.420;8.390;2023-04-24T13:23:35;2.30;;;2.10;;
20535;SDS011;10426;49.420;8.390;2023-04-24T13:26:02;2.08;;;1.98;;
20535;SDS011;10426;49.420;8.390;2023-04-24T13:28:29;1.83;;;1.73;;
20535;SDS011;10426;49.420;8.390;2023-04-24T13:30:56;3.83;;;2.00;;
20535;SDS011;10426;49.420;8.390;2023-04-24T13:33:22;2.72;;;2.10;;
20535;SDS011;10426;49.420;8.390;2023-04-24T13:35:50;7.75;;;2.10;;
20535;SDS011;10426;49.420;8.390;2023-04-24T13:38:19;2.22;;;2.10;;
20535;SDS011;10426;49.420;8.390;2023-04-24T13:40:47;2.28;;;2.00;;
20535;SDS011;10426;49.420;8.390;2023-04-24T13:43:13;2.03;;;1.92;;
20535;SDS011;10426;49.420;8.390;2023-04-24T13:45:41;2.17;;;1.90;;
20535;SDS011;10426;49.420;8.390;2023-04-24T13:48:07;3.08;;;2.15;;
20535;SDS011;10426;49.420;8.390;2023-04-24T13:50:34;2.40;;;2.30;;
20535;SDS011;10426;49.420;8.390;2023-04-24T13:53:02;1.83;;;1.73;;
20535;SDS011;10426;49.420;8.390;2023-04-24T13:55:29;2.00;;;1.90;;
20535;SDS011;10426;49.420;8.390;2023-04-24T13:57:56;3.13;;;2.00;;
20535;SDS011;10426;49.420;8.390;2023-04-24T14:00:23;7.18;;;2.00;;
20535;SDS011;10426;49.420;8.390;2023-04-24T14:02:49;2.35;;;1.88;;
20535;SDS011;10426;49.420;8.390;2023-04-24T14:05:16;2.47;;;2.00;;
20535;SDS011;10426;49.420;8.390;2023-04-24T14:07:43;2.30;;;2.05;;
20535;SDS011;10426;49.420;8.390;2023-04-24T14:10:11;2.42;;;2.25;;
20535;SDS011;10426;49.420;8.390;2023-04-24T14:12:38;3.60;;;1.90;;
20535;SDS011;10426;49.420;8.390;2023-04-24T14:15:05;2.55;;;2.17;;
20535;SDS011;10426;49.420;8.390;2023-04-24T14:17:32;2.23;;;2.03;;
20535;SDS011;10426;49.420;8.390;2023-04-24T14:19:59;3.63;;;2.20;;
20535;SDS011;10426;49.420;8.390;2023-04-24T14:22:25;2.20;;;2.00;;
20535;SDS011;10426;49.420;8.390;2023-04-24T14:24:52;2.17;;;2.08;;
20535;SDS011;10426;49.420;8.390;2023-04-24T14:27:20;2.17;;;2.08;;
20535;SDS011;10426;49.420;8.390;2023-04-24T14:29:47;2.58;;;2.38;;
20535;SDS011;10426;49.420;8.390;2023-04-24T14:32:13;2.30;;;2.20;;
20535;SDS011;10426;49.420;8.390;2023-04-24T14:34:40;2.60;;;2.40;;
20535;SDS011;10426;49.420;8.390;2023-04-24T14:37:07;2.50;;;2.30;;
20535;SDS011;10426;49.420;8.390;2023-04-24T14:39:34;2.23;;;2.13;;
20535;SDS011;10426;49.420;8.390;2023-04-24T14:42:00;2.10;;;2.00;;
20535;SDS011;10426;49.420;8.390;2023-04-24T14:44:28;1.60;;;1.50;;
20535;SDS011;10426;49.420;8.390;2023-04-24T14:46:55;1.73;;;1.55;;
20535;SDS011;10426;49.420;8.390;2023-04-24T14:49:22;1.40;;;1.40;;
20535;SDS011;10426;49.420;8.390;2023-04-24T14:51:49;1.38;;;1.33;;
20535;SDS011;10426;49.420;8.390;2023-04-24T14:54:16;1.77;;;1.63;;
20535;SDS011;10426;49.420;8.390;2023-04-24T14:56:42;1.80;;;1.70;;